sensor_id;sensor_type;location;lat;lon;timestamp;P1;durP1;ratioP1;P2;durP2;ratioP2
946;SDS011;460;48.734;9.152;2024-03-06T00:00:57;5.20;;;2.72;;
946;SDS011;460;48.734;9.152;2024-03-06T00:03:24;4.10;;;2.45;;
946;SDS011;460;48.734;9.152;2024-03-06T00:05:51;3.00;;;2.70;;
946;SDS011;460;48.734;9.152;2024-03-06T00:08:20;3.08;;;2.78;;
946;SDS011;460;48.734;9.152;2024-03-06T00:10:46;2.83;;;2.45;;
946;SDS011;460;48.734;9.152;2024-03-06T00:13:13;2.30;;;2.10;;
946;SDS011;460;48.734;9.152;2024-03-06T00:15:40;3.90;;;3.17;;
946;SDS011;460;48.734;9.152;2024-03-06T00:18:07;2.45;;;2.25;;
946;SDS011;460;48.734;9.152;2024-03-06T00:20:35;4.00;;;2.30;;
946;SDS011;460;48.734;9.152;2024-03-06T00:23:02;2.97;;;2.47;;
946;SDS011;460;48.734;9.152;2024-03-06T00:25:30;2.60;;;2.40;;
946;SDS011;460;48.734;9.152;2024-03-06T00:27:57;3.95;;;2.72;;
946;SDS011;460;48.734;9.152;2024-03-06T00:30:24;2.78;;;2.40;;
946;SDS011;460;48.734;9.152;2024-03-06T00:32:51;4.53;;;2.60;;
946;SDS011;460;48.734;9.152;2024-03-06T00:35:18;3.38;;;3.08;;
946;SDS011;460;48.734;9.152;2024-03-06T00:37:45;3.40;;;3.00;;
946;SDS011;460;48.734;9.152;2024-03-06T00:40:12;2.85;;;2.58;;
946;SDS011;460;48.734;9.152;2024-03-06T00:42:41;2.85;;;2.58;;
946;SDS011;460;48.734;9.152;2024-03-06T00:45:08;3.25;;;3.03;;
946;SDS011;460;48.734;9.152;2024-03-06T00:47:35;3.25;;;2.60;;
946;SDS011;460;48.734;9.152;2024-03-06T00:50:02;2.65;;;2.45;;
946;SDS011;460;48.734;9.152;2024-03-06T00:52:32;4.28;;;2.85;;
946;SDS011;460;48.734;9.152;2024-03-06T00:54:59;3.47;;;3.17;;
946;SDS011;460;48.734;9.152;2024-03-06T00:57:26;4.57;;;3.40;;
946;SDS011;460;48.734;9.152;2024-03-06T00:59:54;3.42;;;2.95;;
946;SDS011;460;48.734;9.152;2024-03-06T01:02:21;3.20;;;2.90;;
946;SDS011;460;48.734;9.152;2024-03-06T01:04:47;4.68;;;2.60;;
946;SDS011;460;48.734;9.152;2024-03-06T01:07:14;3.90;;;2.90;;
946;SDS011;460;48.734;9.152;2024-03-06T01:09:41;2.80;;;2.50;;
946;SDS011;460;48.734;9.152;2024-03-06T01:12:08;6.20;;;3.10;;
946;SDS011;460;48.734;9.152;2024-03-06T01:14:36;3.05;;;2.65;;
946;SDS011;460;48.734;9.152;2024-03-06T01:17:04;4.35;;;3.10;;
946;SDS011;460;48.734;9.152;2024-03-06T01:19:32;2.75;;;2.55;;
946;SDS011;460;48.734;9.152;2024-03-06T01:21:58;3.38;;;3.08;;
946;SDS011;460;48.734;9.152;2024-03-06T01:24:25;2.80;;;2.55;;
946;SDS011;460;48.734;9.152;2024-03-06T01:26:52;4.47;;;3.22;;
946;SDS011;460;48.734;9.152;2024-03-06T01:29:19;3.80;;;3.25;;
946;SDS011;460;48.734;9.152;2024-03-06T01:31:46;2.92;;;2.72;;
946;SDS011;460;48.734;9.152;2024-03-06T01:34:14;4.25;;;2.83;;
946;SDS011;460;48.734;9.152;2024-03-06T01:36:41;2.65;;;2.45;;
946;SDS011;460;48.734;9.152;2024-03-06T01:39:07;3.47;;;2.75;;
946;SDS011;460;48.734;9.152;2024-03-06T01:41:35;6.75;;;3.20;;
946;SDS011;460;48.734;9.152;2024-03-06T01:44:01;3.30;;;2.92;;
946;SDS011;460;48.734;9.152;2024-03-06T01:46:29;3.28;;;2.97;;
946;SDS011;460;48.734;9.152;2024-03-06T01:48:56;7.80;;;4.47;;
946;SDS011;460;48.734;9.152;2024-03-06T01:51:24;5.10;;;3.67;;
946;SDS011;460;48.734;9.152;2024-03-06T01:53:51;5.38;;;3.60;;
946;SDS011;460;48.734;9.152;2024-03-06T01:56:18;4.32;;;3.88;;
946;SDS011;460;48.734;9.152;2024-03-06T01:58:45;3.92;;;3.33;;
946;SDS011;460;48.734;9.152;2024-03-06T02:01:12;4.22;;;3.70;;
946;SDS011;460;48.734;9.152;2024-03-06T02:03:41;3.15;;;2.60;;
946;SDS011;460;48.734;9.152;2024-03-06T02:06:09;3.80;;;3.13;;
946;SDS011;460;48.734;9.152;2024-03-06T02:08:39;3.92;;;3.03;;
946;SDS011;460;48.734;9.152;2024-03-06T02:11:06;4.00;;;3.35;;
946;SDS011;460;48.734;9.152;2024-03-06T02:13:33;4.35;;;3.15;;
946;SDS011;460;48.734;9.152;2024-03-06T02:16:01;4.85;;;2.90;;
946;SDS011;460;48.734;9.152;2024-03-06T02:18:31;3.83;;;3.53;;
946;SDS011;460;48.734;9.152;2024-03-06T02:21:00;5.07;;;2.83;;
946;SDS011;460;48.734;9.152;2024-03-06T02:23:28;3.38;;;3.08;;
946;SDS011;460;48.734;9.152;2024-03-06T02:25:55;3.88;;;3.30;;
946;SDS011;460;48.734;9.152;2024-03-06T02:28:21;2.97;;;2.67;;
946;SDS011;460;48.734;9.152;2024-03-06T02:30:49;2.58;;;2.38;;
946;SDS011;460;48.734;9.152;2024-03-06T02:33:17;4.10;;;2.65;;
946;SDS011;460;48.734;9.152;2024-03-06T02:35:44;3.38;;;3.08;;
946;SDS011;460;48.734;9.152;2024-03-06T02:38:13;3.28;;;2.60;;
946;SDS011;460;48.734;9.152;2024-03-06T02:40:42;4.20;;;2.45;;
946;SDS011;460;48.734;9.152;2024-03-06T02:43:09;3.03;;;2.75;;
946;SDS011;460;48.734;9.152;2024-03-06T02:45:36;4.50;;;2.55;;
946;SDS011;460;48.734;9.152;2024-03-06T02:48:05;4.20;;;2.95;;
946;SDS011;460;48.734;9.152;2024-03-06T02:50:35;4.68;;;4.10;;
946;SDS011;460;48.734;9.152;2024-03-06T02:53:02;3.45;;;2.85;;
946;SDS011;460;48.734;9.152;2024-03-06T02:55:31;2.75;;;2.55;;
946;SDS011;460;48.734;9.152;2024-03-06T02:58:00;5.85;;;2.60;;
946;SDS011;460;48.734;9.152;2024-03-06T03:00:29;2.92;;;2.67;;
946;SDS011;460;48.734;9.152;2024-03-06T03:02:58;4.00;;;3.35;;
946;SDS011;460;48.734;9.152;2024-03-06T03:05:25;2.50;;;2.28;;
946;SDS011;460;48.734;9.152;2024-03-06T03:07:52;4.15;;;3.10;;
946;SDS011;460;48.734;9.152;2024-03-06T03:10:19;3.53;;;2.83;;
946;SDS011;460;48.734;9.152;2024-03-06T03:12:47;2.58;;;2.38;;
946;SDS011;460;48.734;9.152;2024-03-06T03:15:14;3.25;;;2.78;;
946;SDS011;460;48.734;9.152;2024-03-06T03:17:41;4.25;;;3.05;;
946;SDS011;460;48.734;9.152;2024-03-06T03:20:09;2.70;;;2.50;;
946;SDS011;460;48.734;9.152;2024-03-06T03:22:38;3.03;;;2.83;;
946;SDS011;460;48.734;9.152;2024-03-06T03:25:07;6.55;;;3.25;;
946;SDS011;460;48.734;9.152;2024-03-06T03:27:36;9.57;;;3.75;;
946;SDS011;460;48.734;9.152;2024-03-06T03:30:06;2.70;;;2.50;;
946;SDS011;460;48.734;9.152;2024-03-06T03:32:35;3.83;;;3.25;;
946;SDS011;460;48.734;9.152;2024-03-06T03:35:02;7.00;;;3.55;;
946;SDS011;460;48.734;9.152;2024-03-06T03:37:31;3.80;;;3.47;;
946;SDS011;460;48.734;9.152;2024-03-06T03:39:59;4.10;;;3.70;;
946;SDS011;460;48.734;9.152;2024-03-06T03:42:30;5.45;;;3.42;;
946;SDS011;460;48.734;9.152;2024-03-06T03:44:58;4.18;;;3.70;;
946;SDS011;460;48.734;9.152;2024-03-06T03:47:27;7.15;;;4.10;;
946;SDS011;460;48.734;9.152;2024-03-06T03:49:55;4.60;;;4.20;;
946;SDS011;460;48.734;9.152;2024-03-06T03:52:22;5.13;;;4.53;;
946;SDS011;460;48.734;9.152;2024-03-06T03:54:50;7.70;;;4.45;;
946;SDS011;460;48.734;9.152;2024-03-06T03:57:18;5.47;;;4.03;;
946;SDS011;460;48.734;9.152;2024-03-06T03:59:46;3.78;;;3.47;;
946;SDS011;460;48.734;9.152;2024-03-06T04:02:14;4.72;;;3.58;;
946;SDS011;460;48.734;9.152;2024-03-06T04:04:43;4.60;;;3.72;;
946;SDS011;460;48.734;9.152;2024-03-06T04:07:10;4.35;;;4.00;;
946;SDS011;460;48.734;9.152;2024-03-06T04:09:37;4.65;;;3.95;;
946;SDS011;460;48.734;9.152;2024-03-06T04:12:05;4.88;;;4.47;;
946;SDS011;460;48.734;9.152;2024-03-06T04:14:33;4.43;;;4.03;;
946;SDS011;460;48.734;9.152;2024-03-06T04:17:00;5.13;;;4.38;;
946;SDS011;460;48.734;9.152;2024-03-06T04:19:28;8.63;;;5.00;;
946;SDS011;460;48.734;9.152;2024-03-06T04:21:57;5.13;;;4.65;;
946;SDS011;460;48.734;9.152;2024-03-06T04:24:23;4.90;;;4.20;;
946;SDS011;460;48.734;9.152;2024-03-06T04:26:50;5.30;;;4.10;;
946;SDS011;460;48.734;9.152;2024-03-06T04:29:17;5.85;;;5.28;;
946;SDS011;460;48.734;9.152;2024-03-06T04:31:44;6.47;;;4.85;;
946;SDS011;460;48.734;9.152;2024-03-06T04:34:10;8.20;;;3.97;;
946;SDS011;460;48.734;9.152;2024-03-06T04:36:37;8.75;;;4.65;;
946;SDS011;460;48.734;9.152;2024-03-06T04:39:05;4.85;;;4.00;;
946;SDS011;460;48.734;9.152;2024-03-06T04:41:32;9.25;;;4.45;;
946;SDS011;460;48.734;9.152;2024-03-06T04:43:59;4.53;;;4.10;;
946;SDS011;460;48.734;9.152;2024-03-06T04:46:26;4.97;;;3.97;;
946;SDS011;460;48.734;9.152;2024-03-06T04:48:53;3.65;;;3.35;;
946;SDS011;460;48.734;9.152;2024-03-06T04:51:19;4.75;;;4.22;;
946;SDS011;460;48.734;9.152;2024-03-06T04:53:47;4.75;;;3.20;;
946;SDS011;460;48.734;9.152;2024-03-06T04:56:15;3.67;;;3.38;;
946;SDS011;460;48.734;9.152;2024-03-06T04:58:44;5.55;;;3.33;;
946;SDS011;460;48.734;9.152;2024-03-06T05:01:11;5.38;;;4.50;;
946;SDS011;460;48.734;9.152;2024-03-06T05:03:38;5.72;;;3.95;;
946;SDS011;460;48.734;9.152;2024-03-06T05:06:05;5.25;;;4.72;;
946;SDS011;460;48.734;9.152;2024-03-06T05:08:33;6.97;;;4.00;;
946;SDS011;460;48.734;9.152;2024-03-06T05:11:00;4.72;;;4.05;;
946;SDS011;460;48.734;9.152;2024-03-06T05:13:28;4.35;;;3.38;;
946;SDS011;460;48.734;9.152;2024-03-06T05:15:55;4.85;;;4.35;;
946;SDS011;460;48.734;9.152;2024-03-06T05:18:22;5.80;;;3.88;;
946;SDS011;460;48.734;9.152;2024-03-06T05:20:49;6.20;;;4.10;;
946;SDS011;460;48.734;9.152;2024-03-06T05:23:16;4.93;;;3.85;;
946;SDS011;460;48.734;9.152;2024-03-06T05:25:43;4.80;;;3.85;;
946;SDS011;460;48.734;9.152;2024-03-06T05:28:10;10.63;;;4.35;;
946;SDS011;460;48.734;9.152;2024-03-06T05:30:38;4.75;;;4.03;;
946;SDS011;460;48.734;9.152;2024-03-06T05:33:05;5.68;;;4.85;;
946;SDS011;460;48.734;9.152;2024-03-06T05:35:32;8.75;;;4.82;;
946;SDS011;460;48.734;9.152;2024-03-06T05:37:59;7.28;;;4.80;;
946;SDS011;460;48.734;9.152;2024-03-06T05:40:26;6.20;;;4.13;;
946;SDS011;460;48.734;9.152;2024-03-06T05:42:53;6.10;;;4.10;;
946;SDS011;460;48.734;9.152;2024-03-06T05:45:20;7.20;;;5.30;;
946;SDS011;460;48.734;9.152;2024-03-06T05:47:48;5.40;;;4.15;;
946;SDS011;460;48.734;9.152;2024-03-06T05:50:15;5.25;;;4.30;;
946;SDS011;460;48.734;9.152;2024-03-06T05:52:43;4.72;;;4.32;;
946;SDS011;460;48.734;9.152;2024-03-06T05:55:10;6.88;;;4.40;;
946;SDS011;460;48.734;9.152;2024-03-06T05:57:37;9.10;;;4.70;;
946;SDS011;460;48.734;9.152;2024-03-06T06:00:10;6.60;;;4.85;;
946;SDS011;460;48.734;9.152;2024-03-06T06:02:38;7.82;;;5.00;;
946;SDS011;460;48.734;9.152;2024-03-06T06:05:07;8.48;;;5.63;;
946;SDS011;460;48.734;9.152;2024-03-06T06:07:33;8.63;;;4.88;;
946;SDS011;460;48.734;9.152;2024-03-06T06:10:00;5.82;;;5.03;;
946;SDS011;460;48.734;9.152;2024-03-06T06:12:27;5.97;;;5.35;;
946;SDS011;460;48.734;9.152;2024-03-06T06:14:54;5.15;;;4.57;;
946;SDS011;460;48.734;9.152;2024-03-06T06:17:21;6.47;;;5.57;;
946;SDS011;460;48.734;9.152;2024-03-06T06:19:47;11.88;;;6.53;;
946;SDS011;460;48.734;9.152;2024-03-06T06:22:16;6.03;;;4.60;;
946;SDS011;460;48.734;9.152;2024-03-06T06:24:43;7.85;;;5.10;;
946;SDS011;460;48.734;9.152;2024-03-06T06:27:11;10.05;;;7.05;;
946;SDS011;460;48.734;9.152;2024-03-06T06:29:37;8.40;;;6.80;;
946;SDS011;460;48.734;9.152;2024-03-06T06:32:05;6.53;;;5.90;;
946;SDS011;460;48.734;9.152;2024-03-06T06:34:32;8.55;;;5.85;;
946;SDS011;460;48.734;9.152;2024-03-06T06:36:59;6.95;;;5.88;;
946;SDS011;460;48.734;9.152;2024-03-06T06:39:48;10.65;;;6.70;;
946;SDS011;460;48.734;9.152;2024-03-06T06:42:24;7.78;;;6.07;;
946;SDS011;460;48.734;9.152;2024-03-06T06:44:51;8.23;;;5.05;;
946;SDS011;460;48.734;9.152;2024-03-06T06:47:18;10.13;;;5.88;;
946;SDS011;460;48.734;9.152;2024-03-06T06:49:45;9.07;;;5.88;;
946;SDS011;460;48.734;9.152;2024-03-06T06:52:12;6.53;;;5.32;;
946;SDS011;460;48.734;9.152;2024-03-06T06:54:39;8.98;;;5.95;;
946;SDS011;460;48.734;9.152;2024-03-06T06:57:08;6.20;;;5.53;;
946;SDS011;460;48.734;9.152;2024-03-06T06:59:35;6.97;;;5.68;;
946;SDS011;460;48.734;9.152;2024-03-06T07:02:02;8.38;;;4.97;;
946;SDS011;460;48.734;9.152;2024-03-06T07:04:29;11.38;;;5.47;;
946;SDS011;460;48.734;9.152;2024-03-06T07:06:56;6.93;;;5.78;;
946;SDS011;460;48.734;9.152;2024-03-06T07:09:23;7.43;;;5.38;;
946;SDS011;460;48.734;9.152;2024-03-06T07:11:54;6.40;;;5.65;;
946;SDS011;460;48.734;9.152;2024-03-06T07:14:23;6.60;;;5.50;;
946;SDS011;460;48.734;9.152;2024-03-06T07:16:50;8.00;;;5.75;;
946;SDS011;460;48.734;9.152;2024-03-06T07:19:17;8.25;;;5.15;;
946;SDS011;460;48.734;9.152;2024-03-06T07:21:44;7.53;;;5.70;;
946;SDS011;460;48.734;9.152;2024-03-06T07:24:11;7.07;;;5.45;;
946;SDS011;460;48.734;9.152;2024-03-06T07:26:38;6.65;;;5.25;;
946;SDS011;460;48.734;9.152;2024-03-06T07:29:05;8.65;;;5.65;;
946;SDS011;460;48.734;9.152;2024-03-06T07:31:41;7.82;;;6.43;;
946;SDS011;460;48.734;9.152;2024-03-06T07:34:08;7.72;;;6.45;;
946;SDS011;460;48.734;9.152;2024-03-06T07:36:35;7.95;;;6.20;;
946;SDS011;460;48.734;9.152;2024-03-06T07:39:02;9.05;;;7.15;;
946;SDS011;460;48.734;9.152;2024-03-06T07:41:29;8.85;;;6.47;;
946;SDS011;460;48.734;9.152;2024-03-06T07:43:57;7.10;;;6.05;;
946;SDS011;460;48.734;9.152;2024-03-06T07:46:25;6.70;;;6.05;;
946;SDS011;460;48.734;9.152;2024-03-06T07:48:53;7.80;;;5.97;;
946;SDS011;460;48.734;9.152;2024-03-06T07:51:21;9.75;;;6.43;;
946;SDS011;460;48.734;9.152;2024-03-06T07:53:48;8.65;;;6.25;;
946;SDS011;460;48.734;9.152;2024-03-06T07:56:15;8.20;;;6.90;;
946;SDS011;460;48.734;9.152;2024-03-06T07:58:42;10.00;;;7.20;;
946;SDS011;460;48.734;9.152;2024-03-06T08:01:09;9.25;;;7.60;;
946;SDS011;460;48.734;9.152;2024-03-06T08:03:38;9.15;;;7.55;;
946;SDS011;460;48.734;9.152;2024-03-06T08:06:07;10.48;;;7.35;;
946;SDS011;460;48.734;9.152;2024-03-06T08:08:34;11.95;;;7.95;;
946;SDS011;460;48.734;9.152;2024-03-06T08:11:01;16.95;;;10.82;;
946;SDS011;460;48.734;9.152;2024-03-06T08:13:28;12.45;;;9.20;;
946;SDS011;460;48.734;9.152;2024-03-06T08:15:54;10.38;;;8.52;;
946;SDS011;460;48.734;9.152;2024-03-06T08:18:22;12.60;;;11.32;;
946;SDS011;460;48.734;9.152;2024-03-06T08:20:48;12.45;;;9.25;;
946;SDS011;460;48.734;9.152;2024-03-06T08:23:19;14.23;;;9.60;;
946;SDS011;460;48.734;9.152;2024-03-06T08:25:46;10.15;;;8.52;;
946;SDS011;460;48.734;9.152;2024-03-06T08:28:13;10.77;;;8.88;;
946;SDS011;460;48.734;9.152;2024-03-06T08:30:40;8.95;;;8.02;;
946;SDS011;460;48.734;9.152;2024-03-06T08:33:09;10.00;;;8.40;;
946;SDS011;460;48.734;9.152;2024-03-06T08:35:36;8.75;;;7.85;;
946;SDS011;460;48.734;9.152;2024-03-06T08:38:03;8.18;;;7.20;;
946;SDS011;460;48.734;9.152;2024-03-06T08:40:32;10.45;;;6.75;;
946;SDS011;460;48.734;9.152;2024-03-06T08:43:00;9.15;;;6.40;;
946;SDS011;460;48.734;9.152;2024-03-06T08:45:27;8.38;;;7.55;;
946;SDS011;460;48.734;9.152;2024-03-06T08:47:54;6.82;;;6.10;;
946;SDS011;460;48.734;9.152;2024-03-06T08:50:22;9.27;;;6.50;;
946;SDS011;460;48.734;9.152;2024-03-06T08:52:49;9.07;;;6.90;;
946;SDS011;460;48.734;9.152;2024-03-06T08:55:17;11.10;;;7.28;;
946;SDS011;460;48.734;9.152;2024-03-06T08:57:45;7.45;;;6.70;;
946;SDS011;460;48.734;9.152;2024-03-06T09:00:12;8.05;;;7.15;;
946;SDS011;460;48.734;9.152;2024-03-06T09:02:40;8.68;;;7.68;;
946;SDS011;460;48.734;9.152;2024-03-06T09:05:07;7.25;;;6.55;;
946;SDS011;460;48.734;9.152;2024-03-06T09:07:35;11.50;;;6.63;;
946;SDS011;460;48.734;9.152;2024-03-06T09:10:05;8.63;;;6.63;;
946;SDS011;460;48.734;9.152;2024-03-06T09:12:33;8.40;;;7.57;;
946;SDS011;460;48.734;9.152;2024-03-06T09:15:01;10.38;;;7.38;;
946;SDS011;460;48.734;9.152;2024-03-06T09:17:29;11.77;;;8.25;;
946;SDS011;460;48.734;9.152;2024-03-06T09:19:56;9.55;;;8.32;;
946;SDS011;460;48.734;9.152;2024-03-06T09:22:23;7.95;;;7.10;;
946;SDS011;460;48.734;9.152;2024-03-06T09:24:50;11.80;;;7.97;;
946;SDS011;460;48.734;9.152;2024-03-06T09:27:17;8.43;;;6.97;;
946;SDS011;460;48.734;9.152;2024-03-06T09:29:44;9.32;;;8.00;;
946;SDS011;460;48.734;9.152;2024-03-06T09:32:13;9.38;;;7.93;;
946;SDS011;460;48.734;9.152;2024-03-06T09:34:41;10.23;;;7.72;;
946;SDS011;460;48.734;9.152;2024-03-06T09:37:09;9.18;;;7.40;;
946;SDS011;460;48.734;9.152;2024-03-06T09:39:36;18.35;;;7.35;;
946;SDS011;460;48.734;9.152;2024-03-06T09:42:04;9.60;;;7.07;;
946;SDS011;460;48.734;9.152;2024-03-06T09:44:31;8.63;;;6.60;;
946;SDS011;460;48.734;9.152;2024-03-06T09:46:59;8.13;;;6.65;;
946;SDS011;460;48.734;9.152;2024-03-06T09:49:30;15.25;;;7.55;;
946;SDS011;460;48.734;9.152;2024-03-06T09:51:57;12.23;;;9.27;;
946;SDS011;460;48.734;9.152;2024-03-06T09:54:25;9.80;;;7.10;;
946;SDS011;460;48.734;9.152;2024-03-06T09:56:53;10.38;;;7.05;;
946;SDS011;460;48.734;9.152;2024-03-06T09:59:22;10.05;;;7.72;;
946;SDS011;460;48.734;9.152;2024-03-06T10:01:50;10.25;;;7.75;;
946;SDS011;460;48.734;9.152;2024-03-06T10:04:20;13.95;;;9.43;;
946;SDS011;460;48.734;9.152;2024-03-06T10:06:48;10.20;;;8.80;;
946;SDS011;460;48.734;9.152;2024-03-06T10:09:17;7.95;;;7.10;;
946;SDS011;460;48.734;9.152;2024-03-06T10:11:44;9.75;;;8.75;;
946;SDS011;460;48.734;9.152;2024-03-06T10:14:11;8.73;;;7.25;;
946;SDS011;460;48.734;9.152;2024-03-06T10:16:51;9.57;;;8.10;;
946;SDS011;460;48.734;9.152;2024-03-06T10:19:18;14.35;;;8.88;;
946;SDS011;460;48.734;9.152;2024-03-06T10:21:46;8.07;;;6.93;;
946;SDS011;460;48.734;9.152;2024-03-06T10:24:18;12.98;;;9.25;;
946;SDS011;460;48.734;9.152;2024-03-06T10:26:46;13.93;;;10.10;;
946;SDS011;460;48.734;9.152;2024-03-06T10:29:15;13.05;;;9.32;;
946;SDS011;460;48.734;9.152;2024-03-06T10:31:47;11.73;;;10.02;;
946;SDS011;460;48.734;9.152;2024-03-06T10:34:15;13.07;;;9.48;;
946;SDS011;460;48.734;9.152;2024-03-06T10:36:43;14.45;;;9.60;;
946;SDS011;460;48.734;9.152;2024-03-06T10:39:11;12.45;;;9.93;;
946;SDS011;460;48.734;9.152;2024-03-06T10:41:41;15.13;;;10.60;;
946;SDS011;460;48.734;9.152;2024-03-06T10:44:11;15.73;;;9.85;;
946;SDS011;460;48.734;9.152;2024-03-06T10:46:42;15.05;;;11.23;;
946;SDS011;460;48.734;9.152;2024-03-06T10:49:12;13.13;;;9.90;;
946;SDS011;460;48.734;9.152;2024-03-06T10:51:40;14.38;;;10.90;;
946;SDS011;460;48.734;9.152;2024-03-06T10:54:09;13.50;;;11.00;;
946;SDS011;460;48.734;9.152;2024-03-06T10:56:38;15.68;;;10.95;;
946;SDS011;460;48.734;9.152;2024-03-06T10:59:08;14.60;;;12.13;;
946;SDS011;460;48.734;9.152;2024-03-06T11:01:37;14.80;;;10.90;;
946;SDS011;460;48.734;9.152;2024-03-06T11:04:04;14.07;;;11.35;;
946;SDS011;460;48.734;9.152;2024-03-06T11:06:32;15.57;;;11.40;;
946;SDS011;460;48.734;9.152;2024-03-06T11:09:00;15.60;;;11.55;;
946;SDS011;460;48.734;9.152;2024-03-06T11:11:27;12.30;;;10.30;;
946;SDS011;460;48.734;9.152;2024-03-06T11:13:56;17.75;;;11.70;;
946;SDS011;460;48.734;9.152;2024-03-06T11:16:27;15.30;;;10.68;;
946;SDS011;460;48.734;9.152;2024-03-06T11:19:04;19.10;;;13.95;;
946;SDS011;460;48.734;9.152;2024-03-06T11:21:32;16.13;;;12.25;;
946;SDS011;460;48.734;9.152;2024-03-06T11:24:12;14.65;;;10.60;;
946;SDS011;460;48.734;9.152;2024-03-06T11:26:53;19.05;;;13.65;;
946;SDS011;460;48.734;9.152;2024-03-06T11:29:26;17.88;;;11.98;;
946;SDS011;460;48.734;9.152;2024-03-06T11:31:59;17.75;;;12.85;;
946;SDS011;460;48.734;9.152;2024-03-06T11:34:27;18.98;;;12.75;;
946;SDS011;460;48.734;9.152;2024-03-06T11:36:56;14.32;;;11.15;;
946;SDS011;460;48.734;9.152;2024-03-06T11:39:24;17.52;;;13.27;;
946;SDS011;460;48.734;9.152;2024-03-06T11:41:51;17.35;;;11.27;;
946;SDS011;460;48.734;9.152;2024-03-06T11:44:18;19.08;;;12.68;;
946;SDS011;460;48.734;9.152;2024-03-06T11:46:48;14.95;;;10.52;;
946;SDS011;460;48.734;9.152;2024-03-06T11:49:18;19.50;;;12.73;;
946;SDS011;460;48.734;9.152;2024-03-06T11:51:46;18.13;;;13.07;;
946;SDS011;460;48.734;9.152;2024-03-06T11:54:14;14.52;;;10.32;;
946;SDS011;460;48.734;9.152;2024-03-06T11:56:42;22.05;;;14.05;;
946;SDS011;460;48.734;9.152;2024-03-06T11:59:10;16.58;;;13.73;;
946;SDS011;460;48.734;9.152;2024-03-06T12:01:37;22.75;;;12.48;;
946;SDS011;460;48.734;9.152;2024-03-06T12:04:06;15.93;;;11.73;;
946;SDS011;460;48.734;9.152;2024-03-06T12:06:33;17.73;;;13.13;;
946;SDS011;460;48.734;9.152;2024-03-06T12:09:00;18.48;;;12.90;;
946;SDS011;460;48.734;9.152;2024-03-06T12:11:27;16.15;;;11.70;;
946;SDS011;460;48.734;9.152;2024-03-06T12:13:56;20.23;;;12.50;;
946;SDS011;460;48.734;9.152;2024-03-06T12:16:23;18.55;;;12.00;;
946;SDS011;460;48.734;9.152;2024-03-06T12:18:54;15.63;;;12.13;;
946;SDS011;460;48.734;9.152;2024-03-06T12:21:23;22.00;;;13.50;;
946;SDS011;460;48.734;9.152;2024-03-06T12:24:01;17.92;;;13.30;;
946;SDS011;460;48.734;9.152;2024-03-06T12:26:29;18.55;;;13.93;;
946;SDS011;460;48.734;9.152;2024-03-06T12:29:03;18.02;;;12.95;;
946;SDS011;460;48.734;9.152;2024-03-06T12:31:31;17.27;;;12.82;;
946;SDS011;460;48.734;9.152;2024-03-06T12:33:58;18.77;;;13.27;;
946;SDS011;460;48.734;9.152;2024-03-06T12:36:29;16.35;;;12.93;;
946;SDS011;460;48.734;9.152;2024-03-06T12:38:58;19.20;;;14.05;;
946;SDS011;460;48.734;9.152;2024-03-06T12:41:25;20.33;;;14.18;;
946;SDS011;460;48.734;9.152;2024-03-06T12:43:53;20.20;;;13.93;;
946;SDS011;460;48.734;9.152;2024-03-06T12:46:21;20.75;;;14.20;;
946;SDS011;460;48.734;9.152;2024-03-06T12:48:48;24.70;;;15.38;;
946;SDS011;460;48.734;9.152;2024-03-06T12:51:15;24.05;;;15.85;;
946;SDS011;460;48.734;9.152;2024-03-06T12:53:43;22.70;;;15.15;;
946;SDS011;460;48.734;9.152;2024-03-06T12:56:10;19.73;;;14.98;;
946;SDS011;460;48.734;9.152;2024-03-06T12:58:37;25.50;;;14.75;;
946;SDS011;460;48.734;9.152;2024-03-06T13:01:05;20.02;;;14.98;;
946;SDS011;460;48.734;9.152;2024-03-06T13:03:31;25.15;;;15.02;;
946;SDS011;460;48.734;9.152;2024-03-06T13:05:59;22.75;;;16.88;;
946;SDS011;460;48.734;9.152;2024-03-06T13:08:26;21.25;;;15.48;;
946;SDS011;460;48.734;9.152;2024-03-06T13:10:54;21.55;;;15.50;;
946;SDS011;460;48.734;9.152;2024-03-06T13:13:22;22.00;;;15.20;;
946;SDS011;460;48.734;9.152;2024-03-06T13:15:49;18.67;;;13.90;;
946;SDS011;460;48.734;9.152;2024-03-06T13:18:17;26.75;;;15.90;;
946;SDS011;460;48.734;9.152;2024-03-06T13:20:44;19.85;;;13.52;;
946;SDS011;460;48.734;9.152;2024-03-06T13:23:11;20.08;;;15.18;;
946;SDS011;460;48.734;9.152;2024-03-06T13:25:38;20.58;;;13.05;;
946;SDS011;460;48.734;9.152;2024-03-06T13:28:07;21.70;;;14.82;;
946;SDS011;460;48.734;9.152;2024-03-06T13:30:34;22.52;;;14.43;;
946;SDS011;460;48.734;9.152;2024-03-06T13:33:03;19.00;;;14.75;;
946;SDS011;460;48.734;9.152;2024-03-06T13:35:30;19.25;;;12.68;;
946;SDS011;460;48.734;9.152;2024-03-06T13:37:57;18.65;;;12.77;;
946;SDS011;460;48.734;9.152;2024-03-06T13:40:24;19.50;;;13.68;;
946;SDS011;460;48.734;9.152;2024-03-06T13:42:52;17.83;;;14.05;;
946;SDS011;460;48.734;9.152;2024-03-06T13:45:20;23.10;;;15.10;;
946;SDS011;460;48.734;9.152;2024-03-06T13:47:47;20.42;;;14.65;;
946;SDS011;460;48.734;9.152;2024-03-06T13:50:15;20.38;;;14.52;;
946;SDS011;460;48.734;9.152;2024-03-06T13:52:42;22.50;;;14.95;;
946;SDS011;460;48.734;9.152;2024-03-06T13:55:10;18.65;;;14.85;;
946;SDS011;460;48.734;9.152;2024-03-06T13:57:37;14.60;;;11.05;;
946;SDS011;460;48.734;9.152;2024-03-06T14:00:05;22.80;;;15.02;;
946;SDS011;460;48.734;9.152;2024-03-06T14:02:38;18.75;;;13.43;;
946;SDS011;460;48.734;9.152;2024-03-06T14:05:06;21.40;;;14.98;;
946;SDS011;460;48.734;9.152;2024-03-06T14:07:33;18.90;;;13.48;;
946;SDS011;460;48.734;9.152;2024-03-06T14:10:01;19.05;;;13.23;;
946;SDS011;460;48.734;9.152;2024-03-06T14:12:28;20.45;;;14.25;;
946;SDS011;460;48.734;9.152;2024-03-06T14:14:55;19.27;;;15.10;;
946;SDS011;460;48.734;9.152;2024-03-06T14:17:22;20.02;;;13.20;;
946;SDS011;460;48.734;9.152;2024-03-06T14:19:51;22.48;;;15.25;;
946;SDS011;460;48.734;9.152;2024-03-06T14:22:18;20.33;;;14.75;;
946;SDS011;460;48.734;9.152;2024-03-06T14:24:45;19.88;;;13.50;;
946;SDS011;460;48.734;9.152;2024-03-06T14:27:12;23.10;;;14.25;;
946;SDS011;460;48.734;9.152;2024-03-06T14:29:40;22.27;;;15.55;;
946;SDS011;460;48.734;9.152;2024-03-06T14:32:07;23.10;;;15.18;;
946;SDS011;460;48.734;9.152;2024-03-06T14:34:34;23.75;;;15.95;;
946;SDS011;460;48.734;9.152;2024-03-06T14:37:03;17.75;;;14.50;;
946;SDS011;460;48.734;9.152;2024-03-06T14:39:30;19.65;;;14.38;;
946;SDS011;460;48.734;9.152;2024-03-06T14:41:58;21.30;;;16.27;;
946;SDS011;460;48.734;9.152;2024-03-06T14:44:25;19.27;;;13.77;;
946;SDS011;460;48.734;9.152;2024-03-06T14:46:52;17.95;;;14.48;;
946;SDS011;460;48.734;9.152;2024-03-06T14:49:19;19.70;;;13.32;;
946;SDS011;460;48.734;9.152;2024-03-06T14:51:46;20.70;;;14.90;;
946;SDS011;460;48.734;9.152;2024-03-06T14:54:15;18.15;;;13.55;;
946;SDS011;460;48.734;9.152;2024-03-06T14:56:41;25.52;;;15.63;;
946;SDS011;460;48.734;9.152;2024-03-06T14:59:09;20.40;;;15.05;;
946;SDS011;460;48.734;9.152;2024-03-06T15:01:36;19.45;;;13.23;;
946;SDS011;460;48.734;9.152;2024-03-06T15:04:03;22.30;;;13.80;;
946;SDS011;460;48.734;9.152;2024-03-06T15:06:30;19.23;;;12.95;;
946;SDS011;460;48.734;9.152;2024-03-06T15:08:58;18.55;;;13.98;;
946;SDS011;460;48.734;9.152;2024-03-06T15:11:26;20.38;;;13.30;;
946;SDS011;460;48.734;9.152;2024-03-06T15:13:57;23.30;;;12.90;;
946;SDS011;460;48.734;9.152;2024-03-06T15:16:24;21.05;;;13.40;;
946;SDS011;460;48.734;9.152;2024-03-06T15:18:51;19.45;;;13.23;;
946;SDS011;460;48.734;9.152;2024-03-06T15:21:20;16.08;;;11.27;;
946;SDS011;460;48.734;9.152;2024-03-06T15:23:47;18.05;;;12.15;;
946;SDS011;460;48.734;9.152;2024-03-06T15:26:16;14.55;;;11.63;;
946;SDS011;460;48.734;9.152;2024-03-06T15:28:44;14.93;;;11.75;;
946;SDS011;460;48.734;9.152;2024-03-06T15:31:11;18.98;;;13.88;;
946;SDS011;460;48.734;9.152;2024-03-06T15:33:38;22.85;;;13.75;;
946;SDS011;460;48.734;9.152;2024-03-06T15:36:05;16.10;;;13.43;;
946;SDS011;460;48.734;9.152;2024-03-06T15:38:33;19.10;;;13.13;;